createdAt,value
2019-06-26T00:01:37.752Z,9.63
2019-06-26T00:04:07.452Z,10.85
2019-06-26T00:06:37.131Z,10.30
2019-06-26T00:09:08.155Z,9.60
2019-06-26T00:11:38.120Z,9.63
2019-06-26T00:14:07.785Z,8.55
2019-06-26T00:16:37.472Z,9.40
2019-06-26T00:19:07.149Z,9.15
2019-06-26T00:21:36.858Z,11.38
2019-06-26T00:24:06.553Z,9.33
2019-06-26T00:26:36.229Z,9.60
2019-06-26T00:29:05.952Z,10.10
2019-06-26T00:31:35.629Z,8.40
2019-06-26T00:34:05.448Z,8.98
2019-06-26T00:36:35.145Z,9.13
2019-06-26T00:39:06.189Z,8.80
2019-06-26T00:41:35.969Z,8.48
2019-06-26T00:44:05.676Z,8.80
2019-06-26T00:46:35.392Z,10.15
2019-06-26T00:49:05.175Z,10.03
2019-06-26T00:51:34.837Z,9.03
2019-06-26T00:54:04.568Z,9.40
2019-06-26T00:56:34.185Z,8.45
2019-06-26T00:59:05.327Z,9.90
2019-06-26T01:01:36.580Z,9.45
2019-06-26T01:04:10.626Z,9.33
2019-06-26T01:06:44.160Z,9.00
2019-06-26T01:09:14.232Z,9.30
2019-06-26T01:11:43.892Z,9.28
2019-06-26T01:14:13.588Z,9.88
2019-06-26T01:16:43.311Z,9.40
2019-06-26T01:19:13.052Z,9.55
2019-06-26T01:21:42.764Z,9.93
2019-06-26T01:24:12.436Z,10.05
2019-06-26T01:26:42.166Z,9.68
2019-06-26T01:29:11.894Z,9.10
2019-06-26T01:31:41.560Z,9.20
2019-06-26T01:34:11.199Z,9.40
2019-06-26T01:36:40.780Z,10.18
2019-06-26T01:39:10.416Z,9.75
2019-06-26T01:41:40.068Z,9.23
2019-06-26T01:44:14.847Z,9.93
2019-06-26T01:46:41.046Z,9.95
2019-06-26T01:49:10.699Z,9.30
2019-06-26T01:51:40.380Z,10.40
2019-06-26T01:54:10.054Z,9.88
2019-06-26T01:56:39.795Z,10.10
2019-06-26T01:59:09.466Z,10.90
2019-06-26T02:01:39.148Z,10.30
2019-06-26T02:04:09.017Z,9.68
2019-06-26T02:06:38.665Z,10.05
2019-06-26T02:09:09.325Z,9.53
2019-06-26T02:11:39.015Z,10.35
2019-06-26T02:14:08.756Z,9.73
2019-06-26T02:16:38.406Z,10.20
2019-06-26T02:19:09.283Z,10.38
2019-06-26T02:21:38.938Z,10.40
2019-06-26T02:24:08.623Z,10.68
2019-06-26T02:26:38.282Z,10.15
2019-06-26T02:29:08.099Z,10.03
2019-06-26T02:31:37.818Z,10.95
2019-06-26T02:34:07.523Z,10.00
2019-06-26T02:36:37.176Z,10.53
2019-06-26T02:39:06.955Z,10.43
2019-06-26T02:41:36.581Z,10.88
2019-06-26T02:44:06.239Z,10.32
2019-06-26T02:46:35.889Z,10.13
2019-06-26T02:49:05.536Z,10.40
2019-06-26T02:51:35.226Z,11.18
2019-06-26T02:54:05.026Z,10.50
2019-06-26T02:56:34.690Z,10.38
2019-06-26T02:59:04.410Z,10.43
2019-06-26T03:01:34.060Z,11.08
2019-06-26T03:04:03.762Z,10.95
2019-06-26T03:06:33.469Z,10.05
2019-06-26T03:09:03.145Z,11.33
2019-06-26T03:11:34.010Z,11.40
2019-06-26T03:14:03.745Z,9.90
2019-06-26T03:16:33.390Z,10.23
2019-06-26T03:19:03.023Z,10.53
2019-06-26T03:21:32.697Z,10.90
2019-06-26T03:24:02.344Z,11.25
2019-06-26T03:26:31.992Z,9.98
2019-06-26T03:29:01.680Z,11.97
2019-06-26T03:31:31.241Z,10.95
2019-06-26T03:34:00.885Z,10.53
2019-06-26T03:36:30.519Z,10.20
2019-06-26T03:39:01.183Z,11.60
2019-06-26T03:41:31.088Z,12.03
2019-06-26T03:44:00.786Z,11.28
2019-06-26T03:46:30.439Z,11.18
2019-06-26T03:49:00.086Z,11.83
2019-06-26T03:51:29.762Z,11.53
2019-06-26T03:53:59.418Z,11.83
2019-06-26T03:56:29.083Z,11.40
2019-06-26T03:58:59.721Z,10.72
2019-06-26T04:01:29.377Z,11.28
2019-06-26T04:03:59.156Z,10.93
2019-06-26T04:06:28.801Z,9.60
2019-06-26T04:08:58.402Z,11.53
2019-06-26T04:11:28.092Z,11.33
2019-06-26T04:13:57.798Z,10.85
2019-06-26T04:16:27.444Z,11.55
2019-06-26T04:18:57.028Z,12.05
2019-06-26T04:21:26.798Z,12.80
2019-06-26T04:23:56.435Z,11.80
2019-06-26T04:26:26.120Z,11.68
2019-06-26T04:28:55.818Z,11.20
2019-06-26T04:31:25.490Z,11.50
2019-06-26T04:33:55.197Z,12.47
2019-06-26T04:36:24.944Z,12.60
2019-06-26T04:38:54.584Z,12.20
2019-06-26T04:41:24.254Z,10.93
2019-06-26T04:43:53.899Z,12.13
2019-06-26T04:46:23.629Z,10.48
2019-06-26T04:48:53.257Z,11.45
2019-06-26T04:51:22.909Z,11.03
2019-06-26T04:53:55.658Z,15.50
2019-06-26T04:56:23.940Z,11.80
2019-06-26T04:58:53.594Z,12.00
2019-06-26T05:01:23.224Z,12.15
2019-06-26T05:03:54.253Z,11.38
2019-06-26T05:06:24.063Z,11.15
2019-06-26T05:08:55.277Z,11.50
2019-06-26T05:11:25.964Z,12.10
2019-06-26T05:13:55.685Z,11.90
2019-06-26T05:16:25.238Z,11.18
2019-06-26T05:18:54.963Z,12.55
2019-06-26T05:21:24.622Z,11.85
2019-06-26T05:23:54.312Z,11.97
2019-06-26T05:26:23.994Z,12.82
2019-06-26T05:28:53.951Z,12.15
2019-06-26T05:31:23.711Z,11.68
2019-06-26T05:33:53.369Z,11.35
2019-06-26T05:36:23.043Z,12.00
2019-06-26T05:38:52.673Z,12.20
2019-06-26T05:41:22.322Z,11.30
2019-06-26T05:43:52.006Z,10.82
2019-06-26T05:46:31.231Z,10.68
2019-06-26T05:48:53.079Z,10.60
2019-06-26T05:51:22.764Z,10.90
2019-06-26T05:53:52.477Z,10.75
2019-06-26T05:56:22.168Z,10.63
2019-06-26T05:58:51.891Z,10.40
2019-06-26T06:01:21.592Z,10.38
2019-06-26T06:03:51.256Z,10.82
2019-06-26T06:06:21.104Z,10.60
2019-06-26T06:08:51.038Z,11.10
2019-06-26T06:11:20.771Z,10.13
2019-06-26T06:13:50.547Z,10.05
2019-06-26T06:16:21.208Z,10.90
2019-06-26T06:18:50.953Z,10.05
2019-06-26T06:21:20.665Z,10.55
2019-06-26T06:23:50.402Z,10.53
2019-06-26T06:26:20.074Z,10.48
2019-06-26T06:28:49.725Z,10.00
2019-06-26T06:31:19.435Z,9.88
2019-06-26T06:33:49.213Z,10.05
2019-06-26T06:36:18.850Z,8.90
2019-06-26T06:38:48.507Z,9.73
2019-06-26T06:41:18.176Z,9.13
2019-06-26T06:43:47.901Z,10.98
2019-06-26T06:46:17.591Z,11.05
2019-06-26T06:48:47.346Z,9.90
2019-06-26T06:51:17.007Z,9.53
2019-06-26T06:53:46.693Z,9.78
2019-06-26T06:56:17.447Z,10.43
2019-06-26T06:58:47.227Z,10.23
2019-06-26T07:01:16.921Z,10.38
2019-06-26T07:03:46.712Z,10.48
2019-06-26T07:06:16.295Z,9.70
2019-06-26T07:08:45.991Z,9.25
2019-06-26T07:11:19.664Z,9.78
2019-06-26T07:13:52.498Z,8.88
2019-06-26T07:16:22.814Z,9.30
2019-06-26T07:18:52.925Z,9.15
2019-06-26T07:21:23.077Z,8.95
2019-06-26T07:23:53.879Z,9.00
2019-06-26T07:26:24.820Z,9.90
2019-06-26T07:28:54.877Z,9.13
2019-06-26T07:31:24.560Z,8.05
2019-06-26T07:33:55.893Z,7.53
2019-06-26T07:36:25.726Z,7.70
2019-06-26T07:38:55.357Z,8.58
2019-06-26T07:41:24.992Z,8.23
2019-06-26T07:43:54.631Z,8.40
2019-06-26T07:46:24.272Z,7.67
2019-06-26T07:48:57.629Z,7.55
2019-06-26T07:51:27.072Z,8.83
2019-06-26T07:53:56.760Z,7.75
2019-06-26T07:56:26.430Z,8.30
2019-06-26T07:58:56.078Z,7.97
2019-06-26T08:01:25.727Z,7.40
2019-06-26T08:03:55.642Z,7.67
2019-06-26T08:06:25.632Z,8.08
2019-06-26T08:08:55.852Z,6.72
2019-06-26T08:11:26.107Z,7.10
2019-06-26T08:13:56.461Z,7.70
2019-06-26T08:16:27.312Z,7.20
2019-06-26T08:18:57.551Z,6.45
2019-06-26T08:21:27.783Z,7.12
2019-06-26T08:23:57.965Z,6.22
2019-06-26T08:26:28.855Z,6.45
2019-06-26T08:28:58.819Z,6.55
2019-06-26T08:31:29.181Z,6.72
2019-06-26T08:34:07.596Z,6.97
2019-06-26T08:36:37.616Z,6.33
2019-06-26T08:39:09.495Z,7.60
2019-06-26T08:41:39.518Z,6.20
2019-06-26T08:44:11.411Z,6.58
2019-06-26T08:46:41.837Z,6.37
2019-06-26T08:49:24.857Z,6.83
2019-06-26T08:51:45.255Z,6.50
2019-06-26T08:54:15.268Z,6.60
2019-06-26T08:56:46.293Z,6.67
2019-06-26T08:59:17.394Z,6.55
2019-06-26T09:01:49.185Z,6.85
2019-06-26T09:04:21.804Z,6.60
2019-06-26T09:07:09.685Z,6.72
2019-06-26T09:09:47.262Z,6.17
2019-06-26T09:12:17.354Z,6.10
2019-06-26T09:14:47.084Z,7.03
2019-06-26T09:17:16.752Z,6.65
2019-06-26T09:19:46.508Z,6.80
2019-06-26T09:22:27.393Z,6.65
2019-06-26T09:25:20.838Z,6.70
2019-06-26T09:27:45.243Z,6.03
2019-06-26T09:30:16.266Z,7.08
2019-06-26T09:33:04.818Z,6.78
2019-06-26T09:35:39.031Z,5.87
2019-06-26T09:38:18.179Z,6.08
2019-06-26T09:41:03.240Z,5.85
2019-06-26T09:43:43.433Z,6.50
2019-06-26T09:46:14.033Z,6.10
2019-06-26T09:48:52.753Z,6.42
2019-06-26T09:51:22.052Z,6.72
2019-06-26T09:54:08.242Z,5.95
2019-06-26T09:56:40.251Z,6.12
2019-06-26T09:59:15.321Z,5.85
2019-06-26T10:01:47.938Z,6.10
2019-06-26T10:04:34.747Z,5.65
2019-06-26T10:07:09.877Z,6.22
2019-06-26T10:09:37.835Z,6.03
2019-06-26T10:12:33.023Z,5.92
2019-06-26T10:15:08.989Z,7.10
2019-06-26T10:17:48.438Z,6.10
2019-06-26T10:20:25.915Z,5.90
2019-06-26T10:22:57.671Z,5.35
2019-06-26T10:25:30.106Z,5.87
2019-06-26T10:28:05.138Z,6.42
2019-06-26T10:30:39.648Z,5.70
2019-06-26T10:33:16.082Z,5.87
2019-06-26T10:35:51.622Z,5.53
2019-06-26T10:38:25.029Z,6.00
2019-06-26T10:40:58.405Z,6.37
2019-06-26T10:43:39.992Z,6.10
2019-06-26T10:46:21.652Z,5.42
2019-06-26T10:49:27.105Z,6.30
2019-06-26T10:51:55.016Z,6.17
2019-06-26T10:54:28.652Z,5.92
2019-06-26T10:57:05.991Z,5.85
2019-06-26T10:59:42.830Z,6.15
2019-06-26T11:02:23.394Z,5.10
2019-06-26T11:04:57.725Z,5.72
2019-06-26T11:07:41.854Z,6.55
2019-06-26T11:10:51.807Z,5.72
2019-06-26T11:13:22.925Z,5.97
2019-06-26T11:16:11.232Z,5.25
2019-06-26T11:21:43.815Z,5.58
2019-06-26T11:24:13.473Z,5.60
2019-06-26T11:26:43.183Z,6.03
2019-06-26T11:29:12.883Z,5.92
2019-06-26T11:31:42.630Z,5.45
2019-06-26T11:34:12.320Z,6.20
2019-06-26T11:36:42.039Z,6.22
2019-06-26T11:39:11.764Z,6.15
2019-06-26T11:41:41.621Z,6.22
2019-06-26T11:44:11.467Z,5.42
2019-06-26T11:46:41.161Z,5.58
2019-06-26T11:49:10.867Z,5.62
2019-06-26T11:51:40.585Z,6.10
2019-06-26T11:54:10.362Z,6.67
2019-06-26T11:56:40.032Z,6.17
2019-06-26T11:59:12.085Z,6.72
2019-06-26T12:01:41.999Z,6.47
2019-06-26T12:04:12.003Z,5.72
2019-06-26T12:06:45.501Z,5.90
2019-06-26T12:09:13.221Z,6.95
2019-06-26T12:11:42.887Z,5.90
2019-06-26T12:14:12.673Z,6.22
2019-06-26T12:16:42.478Z,7.05
2019-06-26T12:19:12.159Z,5.97
2019-06-26T12:21:41.877Z,6.00
2019-06-26T12:24:11.585Z,6.45
2019-06-26T12:26:41.561Z,6.20
2019-06-26T12:29:11.353Z,5.97
2019-06-26T12:31:41.435Z,6.97
2019-06-26T12:34:11.678Z,6.42
2019-06-26T12:36:41.424Z,6.17
2019-06-26T12:39:11.117Z,6.47
2019-06-26T12:41:40.844Z,5.58
2019-06-26T12:44:10.749Z,6.22
2019-06-26T12:46:40.413Z,5.95
2019-06-26T12:49:10.146Z,5.90
2019-06-26T12:51:39.857Z,6.47
2019-06-26T12:54:09.637Z,6.10
2019-06-26T12:56:39.383Z,6.17
2019-06-26T12:59:09.174Z,6.55
2019-06-26T13:01:40.203Z,5.75
2019-06-26T13:04:10.020Z,6.78
2019-06-26T13:06:39.678Z,5.83
2019-06-26T13:09:09.515Z,6.50
2019-06-26T13:11:39.303Z,6.45
2019-06-26T13:14:09.079Z,6.30
2019-06-26T13:16:38.814Z,5.95
2019-06-26T13:19:11.397Z,5.62
2019-06-26T13:21:41.069Z,6.53
2019-06-26T13:24:10.784Z,5.78
2019-06-26T13:26:40.513Z,5.87
2019-06-26T13:29:10.331Z,5.45
2019-06-26T13:31:40.026Z,6.10
2019-06-26T13:34:09.713Z,6.08
2019-06-26T13:36:39.477Z,5.28
2019-06-26T13:39:09.163Z,5.55
2019-06-26T13:41:38.869Z,5.53
2019-06-26T13:44:08.535Z,4.83
2019-06-26T13:46:38.233Z,5.33
2019-06-26T13:49:08.003Z,5.12
2019-06-26T13:51:37.794Z,5.20
2019-06-26T13:54:07.514Z,4.53
2019-06-26T13:56:37.218Z,5.08
2019-06-26T13:59:13.042Z,4.67
2019-06-26T14:01:42.924Z,5.15
2019-06-26T14:04:12.655Z,5.25
2019-06-26T14:06:42.513Z,4.62
2019-06-26T14:09:12.257Z,4.90
2019-06-26T14:11:41.991Z,5.10
2019-06-26T14:14:11.781Z,4.62
2019-06-26T14:16:41.422Z,5.22
2019-06-26T14:19:12.358Z,4.72
2019-06-26T14:21:42.020Z,5.10
2019-06-26T14:24:11.724Z,4.87
2019-06-26T14:26:41.405Z,4.78
2019-06-26T14:29:20.439Z,4.33
2019-06-26T14:31:42.398Z,4.85
2019-06-26T14:34:12.079Z,5.00
2019-06-26T14:36:41.818Z,5.00
2019-06-26T14:39:11.449Z,5.22
2019-06-26T14:41:41.219Z,5.22
2019-06-26T14:44:10.924Z,5.45
2019-06-26T14:46:40.670Z,6.45
2019-06-26T14:49:10.351Z,6.10
2019-06-26T14:51:46.860Z,6.20
2019-06-26T14:54:11.325Z,6.60
2019-06-26T14:56:41.298Z,5.90
2019-06-26T14:59:12.477Z,6.12
2019-06-26T15:01:42.229Z,6.25
2019-06-26T15:04:11.941Z,6.70
2019-06-26T15:06:41.599Z,6.95
2019-06-26T15:09:11.265Z,6.85
2019-06-26T15:11:40.971Z,5.45
2019-06-26T15:14:10.723Z,6.22
2019-06-26T15:16:40.401Z,6.72
2019-06-26T15:19:10.116Z,6.47
2019-06-26T15:21:39.788Z,6.85
2019-06-26T15:24:09.534Z,6.22
2019-06-26T15:26:39.236Z,6.47
2019-06-26T15:29:08.932Z,6.60
2019-06-26T15:31:38.639Z,6.22
2019-06-26T15:34:08.365Z,6.40
2019-06-26T15:36:39.047Z,6.35
2019-06-26T15:39:09.267Z,6.40
2019-06-26T15:41:38.995Z,6.70
2019-06-26T15:44:08.702Z,7.62
2019-06-26T15:46:38.413Z,6.92
2019-06-26T15:49:08.087Z,7.08
2019-06-26T15:51:37.889Z,7.37
2019-06-26T15:54:07.726Z,6.95
2019-06-26T15:56:37.396Z,6.92
2019-06-26T15:59:07.153Z,6.70
2019-06-26T16:01:36.783Z,6.80
2019-06-26T16:04:06.511Z,7.67
2019-06-26T16:06:36.225Z,7.15
2019-06-26T16:09:06.187Z,7.70
2019-06-26T16:11:35.857Z,7.50
2019-06-26T16:14:05.593Z,6.67
2019-06-26T16:16:36.790Z,7.05
2019-06-26T16:19:10.371Z,8.05
2019-06-26T16:21:40.085Z,7.50
2019-06-26T16:24:09.778Z,7.25
2019-06-26T16:26:39.473Z,7.53
2019-06-26T16:29:09.164Z,7.53
2019-06-26T16:31:38.836Z,8.28
2019-06-26T16:34:08.530Z,7.70
2019-06-26T16:36:38.229Z,7.55
2019-06-26T16:39:08.060Z,7.70
2019-06-26T16:41:37.828Z,7.92
2019-06-26T16:44:07.501Z,7.62
2019-06-26T16:46:37.241Z,7.10
2019-06-26T16:49:06.973Z,7.45
2019-06-26T16:51:36.706Z,10.20
2019-06-26T16:54:06.410Z,10.45
2019-06-26T16:56:36.097Z,8.30
2019-06-26T16:59:05.795Z,8.03
2019-06-26T17:01:35.503Z,7.92
2019-06-26T17:04:05.319Z,6.37
2019-06-26T17:06:35.001Z,7.62
2019-06-26T17:09:06.126Z,8.05
2019-06-26T17:11:35.858Z,8.85
2019-06-26T17:14:05.636Z,9.08
2019-06-26T17:16:35.316Z,8.65
2019-06-26T17:19:05.208Z,7.85
2019-06-26T17:21:34.890Z,7.10
2019-06-26T17:24:04.585Z,7.75
2019-06-26T17:26:34.287Z,8.15
2019-06-26T17:29:04.027Z,7.53
2019-06-26T17:31:33.744Z,7.60
2019-06-26T17:34:03.535Z,7.78
2019-06-26T17:36:33.357Z,8.13
2019-06-26T17:39:03.169Z,7.83
2019-06-26T17:41:33.456Z,9.48
2019-06-26T17:44:03.237Z,8.08
2019-06-26T17:46:33.001Z,8.15
2019-06-26T17:49:03.725Z,8.68
2019-06-26T17:51:33.439Z,8.35
2019-06-26T17:54:03.146Z,8.60
2019-06-26T17:56:32.900Z,8.93
2019-06-26T17:59:02.636Z,9.10
2019-06-26T18:01:32.414Z,10.85
2019-06-26T18:04:05.135Z,9.88
2019-06-26T18:06:33.409Z,9.40
2019-06-26T18:09:03.192Z,9.10
2019-06-26T18:11:34.049Z,9.50
2019-06-26T18:14:03.736Z,9.38
2019-06-26T18:16:33.448Z,9.65
2019-06-26T18:19:03.167Z,9.25
2019-06-26T18:21:32.956Z,8.93
2019-06-26T18:24:03.530Z,8.95
2019-06-26T18:26:33.271Z,9.38
2019-06-26T18:29:03.027Z,9.15
2019-06-26T18:31:32.803Z,8.90
2019-06-26T18:34:02.512Z,9.73
2019-06-26T18:36:33.628Z,9.80
2019-06-26T18:39:04.033Z,8.85
2019-06-26T18:41:33.712Z,8.95
2019-06-26T18:44:03.430Z,8.05
2019-06-26T18:46:33.135Z,9.35
2019-06-26T18:49:02.940Z,9.50
2019-06-26T18:51:32.709Z,8.75
2019-06-26T18:54:02.469Z,8.75
2019-06-26T18:56:32.162Z,8.35
2019-06-26T18:59:02.017Z,8.70
2019-06-26T19:01:31.729Z,9.15
2019-06-26T19:04:01.443Z,8.93
2019-06-26T19:06:31.165Z,8.63
2019-06-26T19:09:04.816Z,8.98
2019-06-26T19:11:34.581Z,8.93
2019-06-26T19:14:04.394Z,8.65
2019-06-26T19:16:36.284Z,8.35
2019-06-26T19:19:05.429Z,8.68
2019-06-26T19:21:37.052Z,9.05
2019-06-26T19:24:10.404Z,9.08
2019-06-26T19:26:37.828Z,8.83
2019-06-26T19:29:07.591Z,9.10
2019-06-26T19:31:37.287Z,8.83
2019-06-26T19:34:07.003Z,8.38
2019-06-26T19:36:49.526Z,8.08
2019-06-26T19:39:08.033Z,9.00
2019-06-26T19:41:37.813Z,9.20
2019-06-26T19:44:08.963Z,8.50
2019-06-26T19:46:41.920Z,9.28
2019-06-26T19:49:10.360Z,8.55
2019-06-26T19:51:40.138Z,8.45
2019-06-26T19:54:25.766Z,9.20
2019-06-26T19:56:41.285Z,8.78
2019-06-26T19:59:11.021Z,8.53
2019-06-26T20:01:40.763Z,8.43
2019-06-26T20:04:10.515Z,8.30
2019-06-26T20:06:40.281Z,8.73
2019-06-26T20:09:09.949Z,8.88
2019-06-26T20:11:39.718Z,8.73
2019-06-26T20:14:09.439Z,8.30
2019-06-26T20:16:39.139Z,9.10
2019-06-26T20:19:08.922Z,8.30
2019-06-26T20:21:38.586Z,8.30
2019-06-26T20:24:09.039Z,8.20
2019-06-26T20:26:38.925Z,9.18
2019-06-26T20:29:08.651Z,8.45
2019-06-26T20:31:38.354Z,8.83
2019-06-26T20:34:08.073Z,8.20
2019-06-26T20:36:37.847Z,8.83
2019-06-26T20:39:07.622Z,9.18
2019-06-26T20:41:37.334Z,9.13
2019-06-26T20:44:07.042Z,8.63
2019-06-26T20:46:36.747Z,8.98
2019-06-26T20:49:06.503Z,8.93
2019-06-26T20:51:36.215Z,9.03
2019-06-26T20:54:06.976Z,8.70
2019-06-26T20:56:36.719Z,8.35
2019-06-26T20:59:06.440Z,8.23
2019-06-26T21:01:36.210Z,8.25
2019-06-26T21:04:05.897Z,8.18
2019-06-26T21:06:35.643Z,8.50
2019-06-26T21:09:06.353Z,8.25
2019-06-26T21:11:36.115Z,7.65
2019-06-26T21:14:05.889Z,8.63
2019-06-26T21:16:35.611Z,8.25
2019-06-26T21:19:05.307Z,8.35
2019-06-26T21:21:35.033Z,8.38
2019-06-26T21:24:05.829Z,8.40
2019-06-26T21:26:35.523Z,8.65
2019-06-26T21:29:05.226Z,7.50
2019-06-26T21:31:34.915Z,7.58
2019-06-26T21:34:04.601Z,7.90
2019-06-26T21:36:34.405Z,8.53
2019-06-26T21:39:05.950Z,7.53
2019-06-26T21:41:35.724Z,8.00
2019-06-26T21:44:05.535Z,8.15
2019-06-26T21:46:35.225Z,6.83
2019-06-26T21:49:05.053Z,7.20
2019-06-26T21:51:34.774Z,7.20
2019-06-26T21:54:04.532Z,7.22
2019-06-26T21:56:52.144Z,7.10
2019-06-26T21:59:39.773Z,6.83
2019-06-26T22:02:27.517Z,6.85
2019-06-26T22:04:58.847Z,6.40
2019-06-26T22:07:30.253Z,6.72
2019-06-26T22:10:18.033Z,6.67
2019-06-26T22:12:47.903Z,6.50
2019-06-26T22:15:18.697Z,6.42
2019-06-26T22:17:48.474Z,6.47
2019-06-26T22:20:18.375Z,6.67
2019-06-26T22:22:47.988Z,5.80
2019-06-26T22:25:17.880Z,7.10
2019-06-26T22:27:47.680Z,6.22
2019-06-26T22:30:17.569Z,6.33
2019-06-26T22:32:47.283Z,6.20
2019-06-26T22:35:17.097Z,5.55
2019-06-26T22:37:46.799Z,6.12
2019-06-26T22:40:16.477Z,5.80
2019-06-26T22:42:46.173Z,6.20
2019-06-26T22:45:16.012Z,6.00
2019-06-26T22:47:45.763Z,5.50
2019-06-26T22:50:15.644Z,5.95
2019-06-26T22:52:45.438Z,5.62
2019-06-26T22:55:15.169Z,6.12
2019-06-26T22:57:44.997Z,5.62
2019-06-26T23:00:15.736Z,5.67
2019-06-26T23:02:45.525Z,5.95
2019-06-26T23:05:15.324Z,6.40
2019-06-26T23:07:45.018Z,6.28
2019-06-26T23:10:14.929Z,6.65
2019-06-26T23:12:45.620Z,5.47
2019-06-26T23:15:15.417Z,6.03
2019-06-26T23:17:45.140Z,6.47
2019-06-26T23:20:14.867Z,5.47
2019-06-26T23:22:44.575Z,5.45
2019-06-26T23:25:14.473Z,5.90
2019-06-26T23:27:44.217Z,5.55
2019-06-26T23:30:17.172Z,6.12
2019-06-26T23:32:46.983Z,5.67
2019-06-26T23:35:16.778Z,5.75
2019-06-26T23:37:46.571Z,6.08
2019-06-26T23:40:16.490Z,5.90
2019-06-26T23:42:46.263Z,6.20
2019-06-26T23:45:16.034Z,5.97
2019-06-26T23:47:45.772Z,6.80
2019-06-26T23:50:15.587Z,5.37
2019-06-26T23:52:45.342Z,5.40
2019-06-26T23:55:15.114Z,5.53
2019-06-26T23:57:58.520Z,5.67
